| Date | Time | Temp. (oF) | Dew Point (oF) | Rel. Hum. (%) | Press. (in.) | Wind Dir. | Wind Speed (mph) | Hourly Rainfall (in.) |
|
|---|---|---|---|---|---|---|---|---|---|
| 1 | 11/16 | 00:00 | 49 | 30 | 49 | 30.18 | W | 3 | 0.00 |
| 2 | 11/15 | 23:00 | 48 | 30 | 51 | 30.17 | WSW | 2 | 0.00 |
| 3 | 11/15 | 22:00 | 49 | 30 | 49 | 30.17 | WSW | 0 | 0.00 |
| 4 | 11/15 | 21:00 | 50 | 32 | 50 | 30.17 | SW | 0 | 0.00 |
| 5 | 11/15 | 20:00 | 53 | 30 | 43 | 30.16 | SW | 0 | 0.00 |
| 6 | 11/15 | 19:00 | 54 | 31 | 42 | 30.15 | SW | 4 | 0.00 |
| 7 | 11/15 | 18:00 | 56 | 31 | 39 | 30.15 | SW | 4 | 0.00 |
| 8 | 11/15 | 17:00 | 59 | 31 | 35 | 30.15 | SW | 4 | 0.00 |
| 9 | 11/15 | 16:00 | 62 | 32 | 33 | 30.14 | SW | 6 | 0.00 |
| 10 | 11/15 | 15:00 | 62 | 32 | 33 | 30.14 | SW | 7 | 0.00 |
| 11 | 11/15 | 14:00 | 62 | 30 | 31 | 30.17 | WSW | 7 | 0.00 |
| 12 | 11/15 | 13:00 | 60 | 29 | 32 | 30.19 | SW | 11 | 0.00 |
| 13 | 11/15 | 12:00 | 59 | 32 | 37 | 30.22 | SW | 8 | 0.00 |
| 14 | 11/15 | 11:00 | 56 | 31 | 39 | 30.26 | WSW | 4 | 0.00 |
| 15 | 11/15 | 10:00 | 52 | 32 | 48 | 30.27 | SW | 7 | 0.00 |
| 16 | 11/15 | 09:00 | 44 | 30 | 60 | 30.28 | WSW | 2 | 0.00 |
| 17 | 11/15 | 08:00 | 34 | 30 | 88 | 30.29 | SW | 1 | 0.00 |
| 18 | 11/15 | 07:00 | 29 | 25 | 87 | 30.28 | SW | 0 | 0.00 |
| 19 | 11/15 | 06:00 | 29 | 25 | 86 | 30.27 | SW | 0 | 0.00 |
| 20 | 11/15 | 05:00 | 30 | 26 | 85 | 30.27 | W | 0 | 0.00 |
| 21 | 11/15 | 04:00 | 29 | 23 | 81 | 30.26 | W | 0 | 0.00 |
| 22 | 11/15 | 03:00 | 30 | 24 | 79 | 30.26 | W | 0 | 0.00 |
| 23 | 11/15 | 02:00 | 31 | 24 | 77 | 30.25 | WSW | 0 | 0.00 |
| 24 | 11/15 | 01:00 | 33 | 25 | 74 | 30.25 | SW | 0 | 0.00 |